KILM/ILM METAR and TAF weather

Enter ICAO airport designator
Station Type Date Time Source
KILM METAR 2023/01/30 11:26 UTC NOAA

KILM 301126Z 31007KT 1SM R35/5000VP6000FT RA BR OVC003 14/13 A3018 RMK AO2 RAB14 P0001 T01390133


Station Type Date Time Source
KILM Decoded METAR 2023/01/30 11:26 UTC NOAA

WILMINGTON INT'L AIRPORT, NC, United States (KILM) 34-16N 077-54W 9M
Jan 30, 2023 - 06:26 AM EST / 2023.01.30 1126 UTC
Wind: from the NW (310 degrees) at 8 MPH (7 KT):0
Visibility: 1 mile(s):0
Sky conditions: overcast
Weather: rain; mist
Precipitation last hour: 0.01 inches
Temperature: 57.0 F (13.9 C)
Dew Point: 55.9 F (13.3 C)
Relative Humidity: 96%
Pressure (altimeter): 30.18 in. Hg (1022 hPa)
ob: KILM 301126Z 31007KT 1SM R35/5000VP6000FT RA BR OVC003 14/13 A3018 RMK AO2 RAB14 P0001 T01390133
cycle: 11

Station Type Date Time Source
KILM TAF 2023/01/30 06:33 UTC NOAA

TAF KILM 300531Z 3006/3106 00000KT 6SM -SHRA OVC030
FM300700 00000KT 6SM -SHRA BR OVC015
FM300800 00000KT 5SM SHRA BR OVC006
FM300900 00000KT 5SM SHRA BR OVC003
FM301500 34005KT P6SM VCSH BKN005
FM302200 32004KT P6SM BKN010

Example: see airport list